x

Port Orford - 15 Nm West Of Port Orford, Or (46015) Wave Buoy

3:50am - Thu 31st Jul 2014 All times are PDT. -7 hours from GMT.

  • Sig Wave height 4.6ft
  • Swell Direction
  • Peak Period 6s
  • Average Period 5s
  • Wind
    18mph, 20mph gusts
  • Sea Temp 52°f
  • Air Temp 53°f
  • Sea Pressure 1017.2mb
  • Port Orford - 15 Nm West Of Port Orford, Or
  • Port Orford - 15 Nm West Of Port Orford, Or

More Historic Weather Station data

Upgrade to MSW Pro to gain access to the past 30 days of data for over 8000 Wavebouys and Weather Stations around the globe.

Join Pro

Comparision Forecast

View Surf forecast
   
Thu 07/31 3:50am 4.5ft 6s 5s 18 20 mph 1017.2mb 52f 53f
2:50am 5ft 6s 5s 18 20 mph 1017.4mb 52f 53f
1:50am 5ft 6s 5s 18 20 mph 1017.9mb 52f 53f
12:50am 5ft 6s 5s 16 18 mph 1018.4mb 52f 53f
Wed 07/30 11:50pm 4.5ft 7s 5s 16 18 mph 1018.5mb 52f 53f
10:50pm 5ft 6s 5s 16 18 mph 1018.8mb 52f 53f
9:50pm 5ft 6s 5s 13 16 mph 1018.8mb 50f 53f
8:50pm 4.5ft 6s 5s 13
mph
1018.8mb 50f 53f
6:50pm 4.5ft 6s 5s 16 18 mph 1018.1mb 51f 54f
5:50pm 5ft 6s 5s 18 20 mph 1018mb 51f 55f
4:50pm 4.5ft 6s 5s 18 22 mph 1018mb 51f 55f
3:50pm 4.5ft 5s 4s 20 25 mph 1018.1mb 51f 55f
2:50pm 4.5ft 6s 5s 20 25 mph 1018.4mb 51f 55f
1:50pm 5ft 6s 5s 22 25 mph 1018.5mb 51f 54f
12:50pm 5ft 6s 5s 20 25 mph 1018.8mb 52f 54f
11:50am 5ft 6s 5s 22 27 mph 1019mb 52f 54f
10:50am 5ft 6s 5s 22 29 mph 1019.3mb 52f 53f
9:50am 5ft 4s 4s 22 27 mph 1019.6mb 52f 53f
8:50am 4.5ft 8s 5s 25 29 mph 1019.5mb 52f 53f
7:50am 4.5ft 8s 4s 25 29 mph 1019.5mb 53f 53f
6:50am 4.5ft 8s 5s 18 20 mph 1019.6mb 53f 53f
5:50am 4ft 6s 5s 18 20 mph 1019.3mb 53f 53f
4:50am 4ft 6s 5s 16 18 mph 1019.3mb 52f 53f
3:50am 4ft 5s 5s 18 22 mph 1019.5mb 52f 54f
2:50am 4.5ft 6s 5s 16 20 mph 1019.6mb 52f 53f
1:50am 4ft 6s 5s 18 20 mph 1019.7mb 53f 53f
12:50am 4ft 5s 5s 18 20 mph 1019.9mb 53f 54f
Tue 07/29 11:50pm 4ft 6s 5s 20 22 mph 1020mb 53f 55f
10:50pm 4ft 6s 5s 18 22 mph 1020.4mb 52f 55f
9:50pm 3.5ft 6s 5s 18 20 mph 1020.6mb 52f 55f
8:50pm 4ft 6s 5s 18 20 mph 1020.2mb 52f 55f
7:50pm 3.5ft 5s 5s 16 20 mph 1020mb 52f 54f
6:50pm 4ft 7s 5s 18 20 mph 1019.8mb 52f 54f
5:50pm 4.5ft 5s 4s 18 20 mph 1019.9mb 52f 55f
4:50pm 4ft 6s 5s 20 25 mph 1019.9mb 52f 55f
3:50pm 4.5ft 6s 5s 20 22 mph 1020.2mb 52f 56f
2:50pm 4ft 5s 5s 18 22 mph 1020.3mb 52f 55f
1:50pm 4.5ft 6s 5s 18 20 mph 1020.2mb 52f 54f
12:50pm 4.5ft 6s 5s 18 20 mph 1020.5mb 52f 53f
11:50am 4.5ft 7s 5s 20 25 mph 1020.4mb 52f 52f
10:50am 4.5ft 6s 5s 20 25 mph 1020.5mb 52f 53f
9:50am 5ft 6s 5s 20 22 mph 1020.6mb 52f 52f
8:50am 4.5ft 6s 5s 20 25 mph 1020.6mb 52f 52f
7:50am 4.5ft 7s 5s 18 20 mph 1020.7mb 52f 53f
6:50am 4.5ft 7s 5s 18 20 mph 1020.3mb 52f 53f
5:50am 4.5ft 6s 5s 16 18 mph 1020.3mb 52f 53f
4:50am 4.5ft 6s 5s 16 20 mph 1020mb 52f 53f
3:50am 4.5ft 7s 5s 16 18 mph 1020mb 51f 53f
2:50am 4.5ft 7s 5s 16 18 mph 1019.6mb 51f 53f
1:50am 5ft 6s 5s 16 18 mph 1019.6mb 52f 53f
12:50am 5ft 6s 5s 18 20 mph 1019.6mb 52f 54f
Mon 07/28 11:50pm 5ft 6s 5s 16 18 mph 1019.8mb 52f 54f
10:50pm 5ft 7s 5s 16 20 mph 1019.9mb 52f 54f
9:50pm 5ft 7s 5s 18
mph
1019.5mb 51f 54f
8:50pm 5ft 8s 5s 16 18 mph 1019.2mb 51f 54f
7:50pm 5ft 7s 5s 18
mph
1018.8mb 52f 54f
6:50pm 5.5ft 7s 5s 18 20 mph 1018.5mb 52f 54f
5:50pm 5ft 8s 5s 18 22 mph 1018.5mb 52f 54f
4:50pm 5ft 8s 5s 20 25 mph 1018.5mb 52f 55f
3:50pm 5.5ft 7s 5s 20 25 mph 1018.6mb 52f 56f
2:50pm 6ft 7s 5s 22 25 mph 1018.8mb 51f 56f
1:50pm 6.5ft 7s 5s 22 27 mph 1018.6mb 51f 55f
12:50pm 6.5ft 7s 5s 22 27 mph 1018.6mb 51f 55f
11:50am 7ft 7s 5s 22 25 mph 1018.6mb 50f 54f
10:50am 7ft 7s 5s 22 27 mph 1018.4mb 50f 54f
9:50am 6.5ft 7s 5s 25 29 mph 1018.5mb 50f 54f
8:50am 7ft 8s 5s 22 27 mph 1018.4mb 50f 54f
7:50am 6.5ft 8s 5s 25 29 mph 1018mb 50f 54f
6:50am 6.5ft 8s 5s 22 27 mph 1017.8mb 51f 53f
5:50am 6.5ft 8s 5s 25 27 mph 1017.3mb 51f 54f
4:50am 6.5ft 8s 5s 22 25 mph 1017.4mb 52f 54f
3:50am 6.5ft 8s 5s 22 27 mph 1017.3mb 52f 55f
2:50am 6ft 8s 5s 25 27 mph 1017.4mb 52f 55f
1:50am 6ft 8s 5s 22 27 mph 1017.6mb 52f 55f
12:50am 6ft 8s 6s 22 25 mph 1017.7mb 51f 55f
Sun 07/27 11:50pm 6.5ft 6s 6s 20 25 mph 1018mb 51f 55f
10:50pm 6ft 8s 6s 18 20 mph 1018mb 51f 54f
9:50pm 6.5ft 7s 6s 18 20 mph 1018mb 51f 55f
8:50pm 6.5ft 6s 5s 18 20 mph 1017.6mb 51f 54f
6:50pm 6.5ft 7s 5s 20 25 mph 1017.2mb 51f 56f
5:50pm 7ft 8s 5s 22 27 mph 1017.1mb 51f 56f
4:50pm 7ft 7s 5s 25 29 mph 1017.1mb 51f 56f
3:50pm 6.5ft 7s 5s 22 27 mph 1017.5mb 51f 56f
2:50pm 7ft 7s 5s 25 29 mph 1017.5mb 51f 56f
1:50pm 7ft 6s 5s 25 29 mph 1017.6mb 51f 55f
12:50pm 7ft 7s 5s 27 29 mph 1017.4mb 51f 55f